Myrtle, Missouri
Current Conditions -  °F | °C
As of 9:55 AM on Saturday 20 Dec 2014 (Local Time) from KARG Reporting Station
Overcast Overcast  
Wind Chill:   Ceiling: 2700
Heat Index:   Visibility: 7mi
Dew Point:   Wind: 3mph
Humidity: 81%   Direction: 40°NE
Pressure: 30.3"   Gusts: NA
Location:  36.51°N, 91.27°W
Report Text: KARG 201555Z AUTO 04003KT 7SM OVC027 04/01 A3030 RMK AO1
Loading
Personal Weather Stations






























Interactive Weather Map New forecast layout! Learn more

10-Day Weather Forecast

Advertisements
Track Severe Weather on mobile